sensor_id;sensor_type;location;lat;lon;timestamp;P1;durP1;ratioP1;P2;durP2;ratioP2
5971;SDS011;3012;49.944;8.454;2023-07-31T00:01:02;1.30;;;0.40;;
5971;SDS011;3012;49.944;8.454;2023-07-31T00:03:34;3.75;;;0.93;;
5971;SDS011;3012;49.944;8.454;2023-07-31T00:06:04;5.22;;;0.85;;
5971;SDS011;3012;49.944;8.454;2023-07-31T00:08:34;5.25;;;0.70;;
5971;SDS011;3012;49.944;8.454;2023-07-31T00:11:05;6.50;;;0.75;;
5971;SDS011;3012;49.944;8.454;2023-07-31T00:13:35;5.20;;;1.40;;
5971;SDS011;3012;49.944;8.454;2023-07-31T00:16:05;2.75;;;0.75;;
5971;SDS011;3012;49.944;8.454;2023-07-31T00:18:37;3.20;;;0.73;;
5971;SDS011;3012;49.944;8.454;2023-07-31T00:21:07;2.83;;;0.63;;
5971;SDS011;3012;49.944;8.454;2023-07-31T00:23:37;2.65;;;0.43;;
5971;SDS011;3012;49.944;8.454;2023-07-31T00:26:07;4.60;;;0.80;;
5971;SDS011;3012;49.944;8.454;2023-07-31T00:28:36;5.63;;;0.85;;
5971;SDS011;3012;49.944;8.454;2023-07-31T00:31:06;3.67;;;0.82;;
5971;SDS011;3012;49.944;8.454;2023-07-31T00:33:38;0.70;;;0.70;;
5971;SDS011;3012;49.944;8.454;2023-07-31T00:36:08;1.15;;;0.70;;
5971;SDS011;3012;49.944;8.454;2023-07-31T00:38:39;4.90;;;1.00;;
5971;SDS011;3012;49.944;8.454;2023-07-31T00:41:09;3.50;;;0.60;;
5971;SDS011;3012;49.944;8.454;2023-07-31T00:43:39;0.63;;;0.45;;
5971;SDS011;3012;49.944;8.454;2023-07-31T00:46:09;3.85;;;1.05;;
5971;SDS011;3012;49.944;8.454;2023-07-31T00:48:42;3.28;;;1.20;;
5971;SDS011;3012;49.944;8.454;2023-07-31T00:51:12;2.50;;;0.93;;
5971;SDS011;3012;49.944;8.454;2023-07-31T00:53:42;2.90;;;1.02;;
5971;SDS011;3012;49.944;8.454;2023-07-31T00:56:12;5.30;;;1.00;;
5971;SDS011;3012;49.944;8.454;2023-07-31T00:58:43;2.35;;;0.73;;
5971;SDS011;3012;49.944;8.454;2023-07-31T01:01:13;2.40;;;1.00;;
5971;SDS011;3012;49.944;8.454;2023-07-31T01:03:45;3.80;;;1.00;;
5971;SDS011;3012;49.944;8.454;2023-07-31T01:06:17;2.38;;;0.60;;
5971;SDS011;3012;49.944;8.454;2023-07-31T01:09:00;2.80;;;1.25;;
5971;SDS011;3012;49.944;8.454;2023-07-31T01:11:33;2.20;;;0.88;;
5971;SDS011;3012;49.944;8.454;2023-07-31T01:14:07;3.85;;;1.08;;
5971;SDS011;3012;49.944;8.454;2023-07-31T01:16:37;2.47;;;1.20;;
5971;SDS011;3012;49.944;8.454;2023-07-31T01:19:09;2.53;;;0.60;;
5971;SDS011;3012;49.944;8.454;2023-07-31T01:24:49;4.35;;;0.90;;
5971;SDS011;3012;49.944;8.454;2023-07-31T01:27:30;3.28;;;0.90;;
5971;SDS011;3012;49.944;8.454;2023-07-31T01:30:04;2.88;;;1.00;;
5971;SDS011;3012;49.944;8.454;2023-07-31T01:32:42;2.72;;;0.85;;
5971;SDS011;3012;49.944;8.454;2023-07-31T01:35:12;4.03;;;0.70;;
5971;SDS011;3012;49.944;8.454;2023-07-31T01:37:43;4.18;;;1.08;;
5971;SDS011;3012;49.944;8.454;2023-07-31T01:40:14;3.05;;;0.85;;
5971;SDS011;3012;49.944;8.454;2023-07-31T01:42:45;2.22;;;1.02;;
5971;SDS011;3012;49.944;8.454;2023-07-31T01:45:15;1.20;;;1.10;;
5971;SDS011;3012;49.944;8.454;2023-07-31T01:47:46;5.10;;;0.93;;
5971;SDS011;3012;49.944;8.454;2023-07-31T01:50:16;3.83;;;1.33;;
5971;SDS011;3012;49.944;8.454;2023-07-31T01:52:46;2.63;;;1.23;;
5971;SDS011;3012;49.944;8.454;2023-07-31T01:55:16;4.25;;;1.25;;
5971;SDS011;3012;49.944;8.454;2023-07-31T01:57:47;9.18;;;1.40;;
5971;SDS011;3012;49.944;8.454;2023-07-31T02:00:17;8.45;;;1.27;;
5971;SDS011;3012;49.944;8.454;2023-07-31T02:02:47;1.52;;;0.80;;
5971;SDS011;3012;49.944;8.454;2023-07-31T02:05:18;3.17;;;1.00;;
5971;SDS011;3012;49.944;8.454;2023-07-31T02:07:48;10.73;;;1.50;;
5971;SDS011;3012;49.944;8.454;2023-07-31T02:10:18;2.85;;;1.20;;
5971;SDS011;3012;49.944;8.454;2023-07-31T02:12:49;2.05;;;0.80;;
5971;SDS011;3012;49.944;8.454;2023-07-31T02:15:20;3.20;;;1.42;;
5971;SDS011;3012;49.944;8.454;2023-07-31T02:17:50;4.30;;;0.98;;
5971;SDS011;3012;49.944;8.454;2023-07-31T02:20:20;6.45;;;0.90;;
5971;SDS011;3012;49.944;8.454;2023-07-31T02:22:50;7.25;;;1.40;;
5971;SDS011;3012;49.944;8.454;2023-07-31T02:25:20;6.18;;;1.35;;
5971;SDS011;3012;49.944;8.454;2023-07-31T02:27:52;5.95;;;1.25;;
5971;SDS011;3012;49.944;8.454;2023-07-31T02:30:23;2.53;;;1.00;;
5971;SDS011;3012;49.944;8.454;2023-07-31T02:32:54;2.92;;;1.10;;
5971;SDS011;3012;49.944;8.454;2023-07-31T02:35:24;1.80;;;1.05;;
5971;SDS011;3012;49.944;8.454;2023-07-31T02:37:54;5.63;;;1.35;;
5971;SDS011;3012;49.944;8.454;2023-07-31T02:40:25;3.03;;;1.10;;
5971;SDS011;3012;49.944;8.454;2023-07-31T02:42:56;1.45;;;0.95;;
5971;SDS011;3012;49.944;8.454;2023-07-31T02:45:26;2.97;;;0.90;;
5971;SDS011;3012;49.944;8.454;2023-07-31T02:47:56;6.22;;;1.20;;
5971;SDS011;3012;49.944;8.454;2023-07-31T02:50:27;1.38;;;1.23;;
5971;SDS011;3012;49.944;8.454;2023-07-31T02:52:57;3.33;;;1.00;;
5971;SDS011;3012;49.944;8.454;2023-07-31T02:55:27;4.88;;;1.35;;
5971;SDS011;3012;49.944;8.454;2023-07-31T02:57:59;1.45;;;0.98;;
5971;SDS011;3012;49.944;8.454;2023-07-31T03:00:29;1.83;;;1.20;;
5971;SDS011;3012;49.944;8.454;2023-07-31T03:02:58;2.38;;;1.33;;
5971;SDS011;3012;49.944;8.454;2023-07-31T03:05:29;9.43;;;1.45;;
5971;SDS011;3012;49.944;8.454;2023-07-31T03:07:59;3.67;;;1.25;;
5971;SDS011;3012;49.944;8.454;2023-07-31T03:10:31;2.20;;;1.50;;
5971;SDS011;3012;49.944;8.454;2023-07-31T03:13:02;3.47;;;1.25;;
5971;SDS011;3012;49.944;8.454;2023-07-31T03:15:32;3.25;;;1.40;;
5971;SDS011;3012;49.944;8.454;2023-07-31T03:18:03;5.07;;;0.93;;
5971;SDS011;3012;49.944;8.454;2023-07-31T03:20:33;4.00;;;1.60;;
5971;SDS011;3012;49.944;8.454;2023-07-31T03:23:03;3.85;;;1.30;;
5971;SDS011;3012;49.944;8.454;2023-07-31T03:25:33;1.55;;;1.13;;
5971;SDS011;3012;49.944;8.454;2023-07-31T03:28:05;2.83;;;1.05;;
5971;SDS011;3012;49.944;8.454;2023-07-31T03:30:35;1.60;;;1.50;;
5971;SDS011;3012;49.944;8.454;2023-07-31T03:33:05;8.05;;;1.17;;
5971;SDS011;3012;49.944;8.454;2023-07-31T03:35:35;1.88;;;0.85;;
5971;SDS011;3012;49.944;8.454;2023-07-31T03:38:05;4.90;;;1.42;;
5971;SDS011;3012;49.944;8.454;2023-07-31T03:40:38;9.02;;;1.33;;
5971;SDS011;3012;49.944;8.454;2023-07-31T03:43:10;3.83;;;1.77;;
5971;SDS011;3012;49.944;8.454;2023-07-31T03:45:40;7.40;;;1.38;;
5971;SDS011;3012;49.944;8.454;2023-07-31T03:48:11;9.55;;;1.67;;
5971;SDS011;3012;49.944;8.454;2023-07-31T03:50:41;4.75;;;1.40;;
5971;SDS011;3012;49.944;8.454;2023-07-31T03:53:11;3.05;;;1.30;;
5971;SDS011;3012;49.944;8.454;2023-07-31T03:55:42;7.80;;;1.63;;
5971;SDS011;3012;49.944;8.454;2023-07-31T03:58:13;4.80;;;1.48;;
5971;SDS011;3012;49.944;8.454;2023-07-31T04:00:44;4.60;;;1.67;;
5971;SDS011;3012;49.944;8.454;2023-07-31T04:03:14;2.33;;;1.52;;
5971;SDS011;3012;49.944;8.454;2023-07-31T04:05:44;3.33;;;1.83;;
5971;SDS011;3012;49.944;8.454;2023-07-31T04:08:14;1.83;;;1.65;;
5971;SDS011;3012;49.944;8.454;2023-07-31T04:10:44;3.42;;;1.25;;
5971;SDS011;3012;49.944;8.454;2023-07-31T04:13:16;2.67;;;1.40;;
5971;SDS011;3012;49.944;8.454;2023-07-31T04:15:48;4.90;;;1.52;;
5971;SDS011;3012;49.944;8.454;2023-07-31T04:18:18;2.65;;;1.55;;
5971;SDS011;3012;49.944;8.454;2023-07-31T04:20:49;9.05;;;1.63;;
5971;SDS011;3012;49.944;8.454;2023-07-31T04:23:19;3.75;;;1.25;;
5971;SDS011;3012;49.944;8.454;2023-07-31T04:25:50;3.60;;;1.60;;
5971;SDS011;3012;49.944;8.454;2023-07-31T04:28:22;3.78;;;1.63;;
5971;SDS011;3012;49.944;8.454;2023-07-31T04:30:53;2.13;;;1.30;;
5971;SDS011;3012;49.944;8.454;2023-07-31T04:33:23;4.95;;;1.05;;
5971;SDS011;3012;49.944;8.454;2023-07-31T04:35:53;2.85;;;1.88;;
5971;SDS011;3012;49.944;8.454;2023-07-31T04:38:24;6.13;;;1.75;;
5971;SDS011;3012;49.944;8.454;2023-07-31T04:40:54;6.03;;;1.45;;
5971;SDS011;3012;49.944;8.454;2023-07-31T04:43:25;5.97;;;1.88;;
5971;SDS011;3012;49.944;8.454;2023-07-31T04:45:55;3.63;;;1.38;;
5971;SDS011;3012;49.944;8.454;2023-07-31T04:48:26;4.57;;;1.60;;
5971;SDS011;3012;49.944;8.454;2023-07-31T04:50:56;3.90;;;1.65;;
5971;SDS011;3012;49.944;8.454;2023-07-31T04:53:27;3.55;;;1.08;;
5971;SDS011;3012;49.944;8.454;2023-07-31T04:55:57;3.80;;;1.17;;
5971;SDS011;3012;49.944;8.454;2023-07-31T04:58:29;5.32;;;1.42;;
5971;SDS011;3012;49.944;8.454;2023-07-31T05:00:59;2.60;;;1.70;;
5971;SDS011;3012;49.944;8.454;2023-07-31T05:03:29;3.63;;;1.33;;
5971;SDS011;3012;49.944;8.454;2023-07-31T05:06:04;5.32;;;1.90;;
5971;SDS011;3012;49.944;8.454;2023-07-31T05:08:36;6.70;;;1.67;;
5971;SDS011;3012;49.944;8.454;2023-07-31T05:11:09;7.97;;;1.25;;
5971;SDS011;3012;49.944;8.454;2023-07-31T05:13:42;7.40;;;1.20;;
5971;SDS011;3012;49.944;8.454;2023-07-31T05:16:13;12.07;;;1.40;;
5971;SDS011;3012;49.944;8.454;2023-07-31T05:18:45;5.88;;;1.48;;
5971;SDS011;3012;49.944;8.454;2023-07-31T05:21:17;4.13;;;1.58;;
5971;SDS011;3012;49.944;8.454;2023-07-31T05:23:49;3.45;;;1.83;;
5971;SDS011;3012;49.944;8.454;2023-07-31T05:26:21;3.85;;;1.35;;
5971;SDS011;3012;49.944;8.454;2023-07-31T05:28:52;3.10;;;1.80;;
5971;SDS011;3012;49.944;8.454;2023-07-31T05:31:23;6.72;;;1.27;;
5971;SDS011;3012;49.944;8.454;2023-07-31T05:33:53;3.42;;;1.20;;
5971;SDS011;3012;49.944;8.454;2023-07-31T05:36:23;2.58;;;1.45;;
5971;SDS011;3012;49.944;8.454;2023-07-31T05:38:53;3.10;;;1.58;;
5971;SDS011;3012;49.944;8.454;2023-07-31T05:41:23;2.60;;;1.67;;
5971;SDS011;3012;49.944;8.454;2023-07-31T05:43:55;3.00;;;1.35;;
5971;SDS011;3012;49.944;8.454;2023-07-31T05:46:26;1.75;;;0.98;;
5971;SDS011;3012;49.944;8.454;2023-07-31T05:48:56;4.82;;;1.58;;
5971;SDS011;3012;49.944;8.454;2023-07-31T05:51:27;3.35;;;1.60;;
5971;SDS011;3012;49.944;8.454;2023-07-31T05:53:58;8.73;;;1.40;;
5971;SDS011;3012;49.944;8.454;2023-07-31T05:56:28;4.80;;;1.23;;
5971;SDS011;3012;49.944;8.454;2023-07-31T05:59:00;3.47;;;1.52;;
5971;SDS011;3012;49.944;8.454;2023-07-31T06:01:30;10.10;;;1.67;;
5971;SDS011;3012;49.944;8.454;2023-07-31T06:04:01;2.33;;;1.20;;
5971;SDS011;3012;49.944;8.454;2023-07-31T06:06:31;4.78;;;1.48;;
5971;SDS011;3012;49.944;8.454;2023-07-31T06:09:03;5.90;;;1.58;;
5971;SDS011;3012;49.944;8.454;2023-07-31T06:11:34;5.18;;;1.77;;
5971;SDS011;3012;49.944;8.454;2023-07-31T06:14:06;8.13;;;1.85;;
5971;SDS011;3012;49.944;8.454;2023-07-31T06:16:36;3.15;;;1.35;;
5971;SDS011;3012;49.944;8.454;2023-07-31T06:19:08;4.55;;;1.58;;
5971;SDS011;3012;49.944;8.454;2023-07-31T06:21:39;3.72;;;1.90;;
5971;SDS011;3012;49.944;8.454;2023-07-31T06:24:12;4.43;;;1.77;;
5971;SDS011;3012;49.944;8.454;2023-07-31T06:26:46;6.18;;;1.55;;
5971;SDS011;3012;49.944;8.454;2023-07-31T06:29:20;6.38;;;1.40;;
5971;SDS011;3012;49.944;8.454;2023-07-31T06:31:51;4.68;;;2.05;;
5971;SDS011;3012;49.944;8.454;2023-07-31T06:34:21;6.32;;;1.85;;
5971;SDS011;3012;49.944;8.454;2023-07-31T06:36:51;3.10;;;1.38;;
5971;SDS011;3012;49.944;8.454;2023-07-31T06:39:21;3.90;;;1.15;;
5971;SDS011;3012;49.944;8.454;2023-07-31T06:41:51;1.10;;;1.00;;
5971;SDS011;3012;49.944;8.454;2023-07-31T06:44:23;7.43;;;1.65;;
5971;SDS011;3012;49.944;8.454;2023-07-31T06:46:53;3.85;;;1.02;;
5971;SDS011;3012;49.944;8.454;2023-07-31T06:49:23;3.33;;;1.42;;
5971;SDS011;3012;49.944;8.454;2023-07-31T06:51:53;2.90;;;1.33;;
5971;SDS011;3012;49.944;8.454;2023-07-31T06:54:24;5.90;;;1.88;;
5971;SDS011;3012;49.944;8.454;2023-07-31T06:56:54;5.35;;;1.80;;
5971;SDS011;3012;49.944;8.454;2023-07-31T06:59:26;4.05;;;1.80;;
5971;SDS011;3012;49.944;8.454;2023-07-31T07:01:57;6.25;;;1.75;;
5971;SDS011;3012;49.944;8.454;2023-07-31T07:04:31;4.53;;;1.77;;
5971;SDS011;3012;49.944;8.454;2023-07-31T07:07:02;6.00;;;1.67;;
5971;SDS011;3012;49.944;8.454;2023-07-31T07:09:32;5.78;;;1.52;;
5971;SDS011;3012;49.944;8.454;2023-07-31T07:12:03;7.78;;;2.33;;
5971;SDS011;3012;49.944;8.454;2023-07-31T07:14:34;4.78;;;1.52;;
5971;SDS011;3012;49.944;8.454;2023-07-31T07:17:04;3.22;;;1.70;;
5971;SDS011;3012;49.944;8.454;2023-07-31T07:19:35;2.33;;;1.65;;
5971;SDS011;3012;49.944;8.454;2023-07-31T07:22:05;6.32;;;1.85;;
5971;SDS011;3012;49.944;8.454;2023-07-31T07:24:35;6.88;;;1.88;;
5971;SDS011;3012;49.944;8.454;2023-07-31T07:27:06;1.77;;;1.65;;
5971;SDS011;3012;49.944;8.454;2023-07-31T07:29:39;3.47;;;1.52;;
5971;SDS011;3012;49.944;8.454;2023-07-31T07:32:10;4.80;;;1.63;;
5971;SDS011;3012;49.944;8.454;2023-07-31T07:34:42;6.18;;;1.85;;
5971;SDS011;3012;49.944;8.454;2023-07-31T07:37:12;4.22;;;1.52;;
5971;SDS011;3012;49.944;8.454;2023-07-31T07:39:43;6.50;;;1.30;;
5971;SDS011;3012;49.944;8.454;2023-07-31T07:42:15;5.57;;;1.73;;
5971;SDS011;3012;49.944;8.454;2023-07-31T07:44:47;4.25;;;1.38;;
5971;SDS011;3012;49.944;8.454;2023-07-31T07:47:18;10.02;;;1.38;;
5971;SDS011;3012;49.944;8.454;2023-07-31T07:49:48;6.18;;;1.92;;
5971;SDS011;3012;49.944;8.454;2023-07-31T07:52:19;4.53;;;1.25;;
5971;SDS011;3012;49.944;8.454;2023-07-31T07:54:50;4.85;;;1.55;;
5971;SDS011;3012;49.944;8.454;2023-07-31T07:57:22;8.48;;;1.65;;
5971;SDS011;3012;49.944;8.454;2023-07-31T07:59:55;3.22;;;1.60;;
5971;SDS011;3012;49.944;8.454;2023-07-31T08:02:26;4.55;;;1.50;;
5971;SDS011;3012;49.944;8.454;2023-07-31T08:04:56;2.42;;;1.42;;
5971;SDS011;3012;49.944;8.454;2023-07-31T08:07:27;2.78;;;1.38;;
5971;SDS011;3012;49.944;8.454;2023-07-31T08:09:57;6.40;;;2.05;;
5971;SDS011;3012;49.944;8.454;2023-07-31T08:12:28;4.05;;;1.67;;
5971;SDS011;3012;49.944;8.454;2023-07-31T08:15:00;2.25;;;1.35;;
5971;SDS011;3012;49.944;8.454;2023-07-31T08:17:31;4.13;;;1.60;;
5971;SDS011;3012;49.944;8.454;2023-07-31T08:20:02;1.40;;;1.30;;
5971;SDS011;3012;49.944;8.454;2023-07-31T08:22:34;6.47;;;1.75;;
5971;SDS011;3012;49.944;8.454;2023-07-31T08:25:06;4.15;;;1.27;;
5971;SDS011;3012;49.944;8.454;2023-07-31T08:27:38;6.60;;;1.55;;
5971;SDS011;3012;49.944;8.454;2023-07-31T08:30:15;5.40;;;1.40;;
5971;SDS011;3012;49.944;8.454;2023-07-31T08:32:47;6.45;;;1.85;;
5971;SDS011;3012;49.944;8.454;2023-07-31T08:35:18;3.00;;;1.52;;
5971;SDS011;3012;49.944;8.454;2023-07-31T08:37:48;5.18;;;1.70;;
5971;SDS011;3012;49.944;8.454;2023-07-31T08:40:18;4.85;;;1.70;;
5971;SDS011;3012;49.944;8.454;2023-07-31T08:42:52;5.63;;;1.60;;
5971;SDS011;3012;49.944;8.454;2023-07-31T08:45:25;3.15;;;1.38;;
5971;SDS011;3012;49.944;8.454;2023-07-31T08:47:56;6.47;;;1.63;;
5971;SDS011;3012;49.944;8.454;2023-07-31T08:50:27;2.05;;;1.05;;
5971;SDS011;3012;49.944;8.454;2023-07-31T08:52:57;6.07;;;1.60;;
5971;SDS011;3012;49.944;8.454;2023-07-31T08:55:28;3.10;;;1.20;;
5971;SDS011;3012;49.944;8.454;2023-07-31T08:57:58;4.95;;;1.30;;
5971;SDS011;3012;49.944;8.454;2023-07-31T09:00:31;3.60;;;1.65;;
5971;SDS011;3012;49.944;8.454;2023-07-31T09:03:03;5.63;;;1.52;;
5971;SDS011;3012;49.944;8.454;2023-07-31T09:05:38;3.30;;;1.25;;
5971;SDS011;3012;49.944;8.454;2023-07-31T09:08:12;2.45;;;1.40;;
5971;SDS011;3012;49.944;8.454;2023-07-31T09:10:44;6.75;;;1.50;;
5971;SDS011;3012;49.944;8.454;2023-07-31T09:13:16;4.20;;;1.92;;
5971;SDS011;3012;49.944;8.454;2023-07-31T09:15:48;3.00;;;1.38;;
5971;SDS011;3012;49.944;8.454;2023-07-31T09:18:18;5.53;;;1.85;;
5971;SDS011;3012;49.944;8.454;2023-07-31T09:21:00;3.50;;;1.75;;
5971;SDS011;3012;49.944;8.454;2023-07-31T09:26:30;5.18;;;1.50;;
5971;SDS011;3012;49.944;8.454;2023-07-31T09:29:04;4.57;;;1.90;;
5971;SDS011;3012;49.944;8.454;2023-07-31T09:31:40;4.43;;;1.88;;
5971;SDS011;3012;49.944;8.454;2023-07-31T09:34:11;3.50;;;1.52;;
5971;SDS011;3012;49.944;8.454;2023-07-31T09:36:42;6.30;;;1.55;;
5971;SDS011;3012;49.944;8.454;2023-07-31T09:39:13;1.45;;;1.45;;
5971;SDS011;3012;49.944;8.454;2023-07-31T09:41:46;6.35;;;1.90;;
5971;SDS011;3012;49.944;8.454;2023-07-31T09:44:22;3.80;;;1.52;;
5971;SDS011;3012;49.944;8.454;2023-07-31T09:47:14;5.82;;;1.88;;
5971;SDS011;3012;49.944;8.454;2023-07-31T09:49:52;5.65;;;1.98;;
5971;SDS011;3012;49.944;8.454;2023-07-31T09:52:22;6.10;;;1.55;;
5971;SDS011;3012;49.944;8.454;2023-07-31T09:54:55;2.47;;;1.70;;
5971;SDS011;3012;49.944;8.454;2023-07-31T09:57:25;2.50;;;1.90;;
5971;SDS011;3012;49.944;8.454;2023-07-31T09:59:57;6.13;;;2.10;;
5971;SDS011;3012;49.944;8.454;2023-07-31T10:02:29;5.07;;;1.63;;
5971;SDS011;3012;49.944;8.454;2023-07-31T10:05:01;5.55;;;1.75;;
5971;SDS011;3012;49.944;8.454;2023-07-31T10:07:33;7.57;;;1.50;;
5971;SDS011;3012;49.944;8.454;2023-07-31T10:10:07;7.65;;;2.13;;
5971;SDS011;3012;49.944;8.454;2023-07-31T10:12:38;3.78;;;1.63;;
5971;SDS011;3012;49.944;8.454;2023-07-31T10:15:08;4.22;;;1.75;;
5971;SDS011;3012;49.944;8.454;2023-07-31T10:17:41;5.22;;;2.53;;
5971;SDS011;3012;49.944;8.454;2023-07-31T10:20:11;5.95;;;2.17;;
5971;SDS011;3012;49.944;8.454;2023-07-31T10:22:41;4.95;;;2.13;;
5971;SDS011;3012;49.944;8.454;2023-07-31T10:25:13;4.95;;;2.22;;
5971;SDS011;3012;49.944;8.454;2023-07-31T10:27:44;4.30;;;1.67;;
5971;SDS011;3012;49.944;8.454;2023-07-31T10:30:16;3.63;;;2.03;;
5971;SDS011;3012;49.944;8.454;2023-07-31T10:32:51;3.80;;;2.03;;
5971;SDS011;3012;49.944;8.454;2023-07-31T10:35:22;3.08;;;1.77;;
5971;SDS011;3012;49.944;8.454;2023-07-31T10:37:53;1.98;;;1.67;;
5971;SDS011;3012;49.944;8.454;2023-07-31T10:40:23;3.65;;;2.20;;
5971;SDS011;3012;49.944;8.454;2023-07-31T10:42:55;3.28;;;2.08;;
5971;SDS011;3012;49.944;8.454;2023-07-31T10:45:30;5.32;;;2.13;;
5971;SDS011;3012;49.944;8.454;2023-07-31T10:48:06;5.72;;;2.20;;
5971;SDS011;3012;49.944;8.454;2023-07-31T10:50:46;4.88;;;2.22;;
5971;SDS011;3012;49.944;8.454;2023-07-31T10:53:23;7.78;;;2.08;;
5971;SDS011;3012;49.944;8.454;2023-07-31T10:55:57;5.45;;;1.75;;
5971;SDS011;3012;49.944;8.454;2023-07-31T10:58:28;4.60;;;2.00;;
5971;SDS011;3012;49.944;8.454;2023-07-31T11:00:59;7.53;;;2.25;;
5971;SDS011;3012;49.944;8.454;2023-07-31T11:03:45;5.57;;;2.17;;
5971;SDS011;3012;49.944;8.454;2023-07-31T11:06:16;5.03;;;1.88;;
5971;SDS011;3012;49.944;8.454;2023-07-31T11:08:47;4.43;;;2.17;;
5971;SDS011;3012;49.944;8.454;2023-07-31T11:11:19;3.33;;;1.95;;
5971;SDS011;3012;49.944;8.454;2023-07-31T11:13:50;6.65;;;2.05;;
5971;SDS011;3012;49.944;8.454;2023-07-31T11:16:22;4.00;;;2.03;;
5971;SDS011;3012;49.944;8.454;2023-07-31T11:18:54;1.95;;;1.70;;
5971;SDS011;3012;49.944;8.454;2023-07-31T11:21:25;2.70;;;1.98;;
5971;SDS011;3012;49.944;8.454;2023-07-31T11:23:57;5.45;;;1.85;;
5971;SDS011;3012;49.944;8.454;2023-07-31T11:26:30;3.90;;;1.33;;
5971;SDS011;3012;49.944;8.454;2023-07-31T11:29:00;5.35;;;1.63;;
5971;SDS011;3012;49.944;8.454;2023-07-31T11:31:30;1.67;;;1.48;;
5971;SDS011;3012;49.944;8.454;2023-07-31T11:34:08;4.00;;;2.00;;
5971;SDS011;3012;49.944;8.454;2023-07-31T11:36:38;2.72;;;1.63;;
5971;SDS011;3012;49.944;8.454;2023-07-31T11:39:09;3.28;;;1.67;;
5971;SDS011;3012;49.944;8.454;2023-07-31T11:41:40;3.38;;;1.48;;
5971;SDS011;3012;49.944;8.454;2023-07-31T11:44:10;3.97;;;1.60;;
5971;SDS011;3012;49.944;8.454;2023-07-31T11:46:53;2.42;;;2.15;;
5971;SDS011;3012;49.944;8.454;2023-07-31T11:49:27;3.78;;;1.98;;
5971;SDS011;3012;49.944;8.454;2023-07-31T11:51:58;6.53;;;2.55;;
5971;SDS011;3012;49.944;8.454;2023-07-31T11:54:29;2.65;;;1.27;;
5971;SDS011;3012;49.944;8.454;2023-07-31T11:57:01;2.70;;;1.90;;
5971;SDS011;3012;49.944;8.454;2023-07-31T11:59:34;4.85;;;1.90;;
5971;SDS011;3012;49.944;8.454;2023-07-31T12:02:06;2.72;;;1.88;;
5971;SDS011;3012;49.944;8.454;2023-07-31T12:04:39;8.30;;;1.77;;
5971;SDS011;3012;49.944;8.454;2023-07-31T12:07:10;3.28;;;1.73;;
5971;SDS011;3012;49.944;8.454;2023-07-31T12:09:50;2.83;;;2.10;;
5971;SDS011;3012;49.944;8.454;2023-07-31T12:12:21;5.32;;;1.90;;
5971;SDS011;3012;49.944;8.454;2023-07-31T12:14:52;3.67;;;1.70;;
5971;SDS011;3012;49.944;8.454;2023-07-31T12:17:24;5.10;;;1.42;;
5971;SDS011;3012;49.944;8.454;2023-07-31T12:19:56;4.93;;;1.40;;
5971;SDS011;3012;49.944;8.454;2023-07-31T12:22:27;2.80;;;1.63;;
5971;SDS011;3012;49.944;8.454;2023-07-31T12:24:57;5.90;;;2.20;;
5971;SDS011;3012;49.944;8.454;2023-07-31T12:27:32;2.63;;;1.70;;
5971;SDS011;3012;49.944;8.454;2023-07-31T12:30:04;3.67;;;1.27;;
5971;SDS011;3012;49.944;8.454;2023-07-31T12:32:36;4.03;;;1.77;;
5971;SDS011;3012;49.944;8.454;2023-07-31T12:35:12;4.18;;;1.92;;
5971;SDS011;3012;49.944;8.454;2023-07-31T12:37:42;5.95;;;1.70;;
5971;SDS011;3012;49.944;8.454;2023-07-31T12:40:12;3.33;;;1.92;;
5971;SDS011;3012;49.944;8.454;2023-07-31T12:42:53;4.55;;;1.75;;
5971;SDS011;3012;49.944;8.454;2023-07-31T12:45:24;3.10;;;1.42;;
5971;SDS011;3012;49.944;8.454;2023-07-31T12:47:57;4.18;;;1.60;;
5971;SDS011;3012;49.944;8.454;2023-07-31T12:50:32;7.82;;;2.15;;
5971;SDS011;3012;49.944;8.454;2023-07-31T12:53:05;2.28;;;1.83;;
5971;SDS011;3012;49.944;8.454;2023-07-31T12:55:37;4.13;;;1.65;;
5971;SDS011;3012;49.944;8.454;2023-07-31T12:58:07;4.75;;;1.80;;
5971;SDS011;3012;49.944;8.454;2023-07-31T13:00:39;3.33;;;2.10;;
5971;SDS011;3012;49.944;8.454;2023-07-31T13:03:11;3.38;;;1.52;;
5971;SDS011;3012;49.944;8.454;2023-07-31T13:05:44;2.53;;;2.08;;
5971;SDS011;3012;49.944;8.454;2023-07-31T13:08:14;2.97;;;1.63;;
5971;SDS011;3012;49.944;8.454;2023-07-31T13:10:44;6.90;;;1.48;;
5971;SDS011;3012;49.944;8.454;2023-07-31T13:13:16;4.50;;;1.77;;
5971;SDS011;3012;49.944;8.454;2023-07-31T13:15:46;1.52;;;1.42;;
5971;SDS011;3012;49.944;8.454;2023-07-31T13:18:16;3.40;;;1.83;;
5971;SDS011;3012;49.944;8.454;2023-07-31T13:20:48;5.03;;;1.80;;
5971;SDS011;3012;49.944;8.454;2023-07-31T13:23:18;3.22;;;2.15;;
5971;SDS011;3012;49.944;8.454;2023-07-31T13:25:49;6.05;;;1.65;;
5971;SDS011;3012;49.944;8.454;2023-07-31T13:28:19;3.90;;;1.65;;
5971;SDS011;3012;49.944;8.454;2023-07-31T13:30:50;6.78;;;2.00;;
5971;SDS011;3012;49.944;8.454;2023-07-31T13:33:20;3.90;;;1.48;;
5971;SDS011;3012;49.944;8.454;2023-07-31T13:36:05;6.45;;;2.17;;
5971;SDS011;3012;49.944;8.454;2023-07-31T13:38:35;9.27;;;1.83;;
5971;SDS011;3012;49.944;8.454;2023-07-31T13:41:06;4.50;;;1.42;;
5971;SDS011;3012;49.944;8.454;2023-07-31T13:43:36;4.07;;;1.88;;
5971;SDS011;3012;49.944;8.454;2023-07-31T13:46:06;4.68;;;2.05;;
5971;SDS011;3012;49.944;8.454;2023-07-31T13:48:38;2.83;;;1.20;;
5971;SDS011;3012;49.944;8.454;2023-07-31T13:51:09;4.22;;;1.50;;
5971;SDS011;3012;49.944;8.454;2023-07-31T13:53:40;3.03;;;1.65;;
5971;SDS011;3012;49.944;8.454;2023-07-31T13:56:11;6.43;;;1.83;;
5971;SDS011;3012;49.944;8.454;2023-07-31T13:58:42;11.73;;;2.17;;
5971;SDS011;3012;49.944;8.454;2023-07-31T14:01:12;4.65;;;2.00;;
5971;SDS011;3012;49.944;8.454;2023-07-31T14:03:43;3.00;;;2.03;;
5971;SDS011;3012;49.944;8.454;2023-07-31T14:06:14;4.30;;;1.60;;
5971;SDS011;3012;49.944;8.454;2023-07-31T14:08:45;6.38;;;2.25;;
5971;SDS011;3012;49.944;8.454;2023-07-31T14:11:17;3.03;;;1.60;;
5971;SDS011;3012;49.944;8.454;2023-07-31T14:13:47;7.82;;;1.85;;
5971;SDS011;3012;49.944;8.454;2023-07-31T14:16:18;8.77;;;1.63;;
5971;SDS011;3012;49.944;8.454;2023-07-31T14:18:49;7.15;;;1.30;;
5971;SDS011;3012;49.944;8.454;2023-07-31T14:21:22;9.30;;;2.10;;
5971;SDS011;3012;49.944;8.454;2023-07-31T14:23:53;1.80;;;1.70;;
5971;SDS011;3012;49.944;8.454;2023-07-31T14:26:23;4.47;;;1.88;;
5971;SDS011;3012;49.944;8.454;2023-07-31T14:28:55;4.63;;;1.88;;
5971;SDS011;3012;49.944;8.454;2023-07-31T14:31:28;5.25;;;2.22;;
5971;SDS011;3012;49.944;8.454;2023-07-31T14:33:59;4.47;;;1.80;;
5971;SDS011;3012;49.944;8.454;2023-07-31T14:36:31;1.70;;;1.60;;
5971;SDS011;3012;49.944;8.454;2023-07-31T14:39:02;5.57;;;1.73;;
5971;SDS011;3012;49.944;8.454;2023-07-31T14:41:32;7.03;;;1.80;;
5971;SDS011;3012;49.944;8.454;2023-07-31T14:44:03;4.85;;;1.88;;
5971;SDS011;3012;49.944;8.454;2023-07-31T14:46:34;3.33;;;1.95;;
5971;SDS011;3012;49.944;8.454;2023-07-31T14:49:05;4.15;;;1.42;;
5971;SDS011;3012;49.944;8.454;2023-07-31T14:51:40;2.92;;;1.55;;
5971;SDS011;3012;49.944;8.454;2023-07-31T14:54:12;3.75;;;1.60;;
5971;SDS011;3012;49.944;8.454;2023-07-31T14:56:45;1.80;;;1.05;;
5971;SDS011;3012;49.944;8.454;2023-07-31T14:59:16;2.00;;;1.67;;
5971;SDS011;3012;49.944;8.454;2023-07-31T15:01:46;4.88;;;1.60;;
5971;SDS011;3012;49.944;8.454;2023-07-31T15:04:16;2.55;;;1.42;;
5971;SDS011;3012;49.944;8.454;2023-07-31T15:06:48;4.97;;;1.10;;
5971;SDS011;3012;49.944;8.454;2023-07-31T15:09:19;4.13;;;1.17;;
5971;SDS011;3012;49.944;8.454;2023-07-31T15:11:49;8.00;;;1.20;;
5971;SDS011;3012;49.944;8.454;2023-07-31T15:14:19;2.22;;;1.35;;
5971;SDS011;3012;49.944;8.454;2023-07-31T15:16:49;3.35;;;1.00;;
5971;SDS011;3012;49.944;8.454;2023-07-31T15:19:19;2.05;;;1.08;;
5971;SDS011;3012;49.944;8.454;2023-07-31T15:21:53;0.65;;;0.38;;
5971;SDS011;3012;49.944;8.454;2023-07-31T15:24:23;0.73;;;0.40;;
5971;SDS011;3012;49.944;8.454;2023-07-31T15:26:53;0.73;;;0.70;;
5971;SDS011;3012;49.944;8.454;2023-07-31T15:29:23;1.38;;;0.90;;
5971;SDS011;3012;49.944;8.454;2023-07-31T15:31:53;2.95;;;1.35;;
5971;SDS011;3012;49.944;8.454;2023-07-31T15:34:23;2.70;;;0.85;;
5971;SDS011;3012;49.944;8.454;2023-07-31T15:36:55;1.90;;;0.80;;
5971;SDS011;3012;49.944;8.454;2023-07-31T15:39:25;2.50;;;0.77;;
5971;SDS011;3012;49.944;8.454;2023-07-31T15:41:55;2.22;;;0.93;;
5971;SDS011;3012;49.944;8.454;2023-07-31T15:44:25;3.20;;;0.82;;
5971;SDS011;3012;49.944;8.454;2023-07-31T15:46:56;1.10;;;0.70;;